sensor_id;sensor_type;location;lat;lon;timestamp;temperature;humidity
46590;DHT22;32313;48.722;9.362;2022-09-03T00:00:48;14.70;99.90
46590;DHT22;32313;48.722;9.362;2022-09-03T00:03:22;14.70;99.90
46590;DHT22;32313;48.722;9.362;2022-09-03T00:06:01;14.70;99.90
46590;DHT22;32313;48.722;9.362;2022-09-03T00:08:41;14.70;99.90
46590;DHT22;32313;48.722;9.362;2022-09-03T00:11:32;14.80;99.90
46590;DHT22;32313;48.722;9.362;2022-09-03T00:14:08;14.80;99.90
46590;DHT22;32313;48.722;9.362;2022-09-03T00:17:04;14.80;99.90
46590;DHT22;32313;48.722;9.362;2022-09-03T00:19:36;14.80;99.90
46590;DHT22;32313;48.722;9.362;2022-09-03T00:22:27;14.80;99.90
46590;DHT22;32313;48.722;9.362;2022-09-03T00:24:55;14.80;99.90
46590;DHT22;32313;48.722;9.362;2022-09-03T00:27:26;14.80;99.90
46590;DHT22;32313;48.722;9.362;2022-09-03T00:30:03;14.90;99.90
46590;DHT22;32313;48.722;9.362;2022-09-03T00:32:49;14.90;99.90
46590;DHT22;32313;48.722;9.362;2022-09-03T00:35:30;15.00;99.90
46590;DHT22;32313;48.722;9.362;2022-09-03T00:37:57;15.00;99.90
46590;DHT22;32313;48.722;9.362;2022-09-03T00:40:31;15.10;99.90
46590;DHT22;32313;48.722;9.362;2022-09-03T00:43:03;15.10;99.90
46590;DHT22;32313;48.722;9.362;2022-09-03T00:51:07;15.30;99.90
46590;DHT22;32313;48.722;9.362;2022-09-03T01:05:19;15.30;99.90
46590;DHT22;32313;48.722;9.362;2022-09-03T01:14:15;15.40;99.90
46590;DHT22;32313;48.722;9.362;2022-09-03T01:16:53;15.40;99.90
46590;DHT22;32313;48.722;9.362;2022-09-03T01:30:23;15.50;99.90
46590;DHT22;32313;48.722;9.362;2022-09-03T01:33:03;15.50;99.90
46590;DHT22;32313;48.722;9.362;2022-09-03T01:35:52;15.50;99.90
46590;DHT22;32313;48.722;9.362;2022-09-03T01:46:51;15.50;99.90
46590;DHT22;32313;48.722;9.362;2022-09-03T01:49:23;15.50;99.90
46590;DHT22;32313;48.722;9.362;2022-09-03T01:52:08;15.40;99.90
46590;DHT22;32313;48.722;9.362;2022-09-03T01:54:47;15.40;99.90
46590;DHT22;32313;48.722;9.362;2022-09-03T02:00:13;15.50;99.90
46590;DHT22;32313;48.722;9.362;2022-09-03T02:02:41;15.50;99.90
46590;DHT22;32313;48.722;9.362;2022-09-03T02:07:36;15.50;99.90
46590;DHT22;32313;48.722;9.362;2022-09-03T02:10:06;15.50;99.90
46590;DHT22;32313;48.722;9.362;2022-09-03T02:12:34;15.50;99.90
46590;DHT22;32313;48.722;9.362;2022-09-03T02:15:04;15.50;99.90
46590;DHT22;32313;48.722;9.362;2022-09-03T02:17:31;15.60;99.90
46590;DHT22;32313;48.722;9.362;2022-09-03T02:19:58;15.60;99.90
46590;DHT22;32313;48.722;9.362;2022-09-03T02:22:27;15.60;99.90
46590;DHT22;32313;48.722;9.362;2022-09-03T02:24:52;15.60;99.90
46590;DHT22;32313;48.722;9.362;2022-09-03T02:27:18;15.60;99.90
46590;DHT22;32313;48.722;9.362;2022-09-03T02:29:44;15.50;99.90
46590;DHT22;32313;48.722;9.362;2022-09-03T02:32:11;15.50;99.90
46590;DHT22;32313;48.722;9.362;2022-09-03T02:34:36;15.40;99.90
46590;DHT22;32313;48.722;9.362;2022-09-03T02:37:11;15.40;99.90
46590;DHT22;32313;48.722;9.362;2022-09-03T02:39:37;15.30;99.90
46590;DHT22;32313;48.722;9.362;2022-09-03T02:42:03;15.30;99.90
46590;DHT22;32313;48.722;9.362;2022-09-03T02:44:35;15.30;99.90
46590;DHT22;32313;48.722;9.362;2022-09-03T02:47:04;15.20;99.90
46590;DHT22;32313;48.722;9.362;2022-09-03T02:49:30;15.10;99.90
46590;DHT22;32313;48.722;9.362;2022-09-03T02:52:00;15.10;99.90
46590;DHT22;32313;48.722;9.362;2022-09-03T02:54:29;15.00;99.90
46590;DHT22;32313;48.722;9.362;2022-09-03T02:56:58;14.90;99.90
46590;DHT22;32313;48.722;9.362;2022-09-03T02:59:24;14.90;99.90
46590;DHT22;32313;48.722;9.362;2022-09-03T03:01:53;14.90;99.90
46590;DHT22;32313;48.722;9.362;2022-09-03T03:04:20;14.80;99.90
46590;DHT22;32313;48.722;9.362;2022-09-03T03:06:45;14.70;99.90
46590;DHT22;32313;48.722;9.362;2022-09-03T03:09:11;14.60;99.90
46590;DHT22;32313;48.722;9.362;2022-09-03T03:11:37;14.40;99.90
46590;DHT22;32313;48.722;9.362;2022-09-03T03:14:04;14.30;99.90
46590;DHT22;32313;48.722;9.362;2022-09-03T03:16:30;14.20;99.90
46590;DHT22;32313;48.722;9.362;2022-09-03T03:18:56;14.10;99.90
46590;DHT22;32313;48.722;9.362;2022-09-03T03:21:22;14.00;99.90
46590;DHT22;32313;48.722;9.362;2022-09-03T03:23:47;14.00;99.90
46590;DHT22;32313;48.722;9.362;2022-09-03T03:26:16;13.90;99.90
46590;DHT22;32313;48.722;9.362;2022-09-03T03:28:46;13.80;99.90
46590;DHT22;32313;48.722;9.362;2022-09-03T03:31:15;13.80;99.90
46590;DHT22;32313;48.722;9.362;2022-09-03T03:33:41;13.70;99.90
46590;DHT22;32313;48.722;9.362;2022-09-03T03:36:10;13.60;99.90
46590;DHT22;32313;48.722;9.362;2022-09-03T03:38:37;13.50;99.90
46590;DHT22;32313;48.722;9.362;2022-09-03T03:41:13;13.40;99.90
46590;DHT22;32313;48.722;9.362;2022-09-03T03:43:40;13.30;99.90
46590;DHT22;32313;48.722;9.362;2022-09-03T03:46:06;13.30;99.90
46590;DHT22;32313;48.722;9.362;2022-09-03T03:48:32;13.30;99.90
46590;DHT22;32313;48.722;9.362;2022-09-03T03:51:06;13.30;99.90
46590;DHT22;32313;48.722;9.362;2022-09-03T03:53:33;13.30;99.90
46590;DHT22;32313;48.722;9.362;2022-09-03T03:56:02;13.30;99.90
46590;DHT22;32313;48.722;9.362;2022-09-03T03:58:30;13.30;99.90
46590;DHT22;32313;48.722;9.362;2022-09-03T04:01:08;13.30;99.90
46590;DHT22;32313;48.722;9.362;2022-09-03T04:03:34;13.40;99.90
46590;DHT22;32313;48.722;9.362;2022-09-03T04:06:00;13.40;99.90
46590;DHT22;32313;48.722;9.362;2022-09-03T04:08:27;13.40;99.90
46590;DHT22;32313;48.722;9.362;2022-09-03T04:10:53;13.50;99.90
46590;DHT22;32313;48.722;9.362;2022-09-03T04:13:19;13.50;99.90
46590;DHT22;32313;48.722;9.362;2022-09-03T04:15:45;13.50;99.90
46590;DHT22;32313;48.722;9.362;2022-09-03T04:18:11;13.60;99.90
46590;DHT22;32313;48.722;9.362;2022-09-03T04:20:37;13.60;99.90
46590;DHT22;32313;48.722;9.362;2022-09-03T04:23:03;13.70;99.90
46590;DHT22;32313;48.722;9.362;2022-09-03T04:25:29;13.70;99.90
46590;DHT22;32313;48.722;9.362;2022-09-03T04:27:54;13.80;99.90
46590;DHT22;32313;48.722;9.362;2022-09-03T04:30:20;13.80;99.90
46590;DHT22;32313;48.722;9.362;2022-09-03T04:32:49;13.80;99.90
46590;DHT22;32313;48.722;9.362;2022-09-03T04:35:18;13.90;99.90
46590;DHT22;32313;48.722;9.362;2022-09-03T04:37:45;13.90;99.90
46590;DHT22;32313;48.722;9.362;2022-09-03T04:40:11;13.90;99.90
46590;DHT22;32313;48.722;9.362;2022-09-03T04:42:37;13.90;99.90
46590;DHT22;32313;48.722;9.362;2022-09-03T04:45:03;13.90;99.90
46590;DHT22;32313;48.722;9.362;2022-09-03T04:47:28;13.90;99.90
46590;DHT22;32313;48.722;9.362;2022-09-03T04:49:54;13.90;99.90
46590;DHT22;32313;48.722;9.362;2022-09-03T04:52:20;13.90;99.90
46590;DHT22;32313;48.722;9.362;2022-09-03T04:54:46;14.00;99.90
46590;DHT22;32313;48.722;9.362;2022-09-03T04:57:11;14.00;99.90
46590;DHT22;32313;48.722;9.362;2022-09-03T04:59:38;14.00;99.90
46590;DHT22;32313;48.722;9.362;2022-09-03T05:02:06;14.10;99.90
46590;DHT22;32313;48.722;9.362;2022-09-03T05:04:32;14.10;99.90
46590;DHT22;32313;48.722;9.362;2022-09-03T05:06:58;14.10;99.90
46590;DHT22;32313;48.722;9.362;2022-09-03T05:09:24;14.20;99.90
46590;DHT22;32313;48.722;9.362;2022-09-03T05:11:49;14.20;99.90
46590;DHT22;32313;48.722;9.362;2022-09-03T05:14:15;14.30;99.90
46590;DHT22;32313;48.722;9.362;2022-09-03T05:16:41;14.30;99.90
46590;DHT22;32313;48.722;9.362;2022-09-03T05:19:07;14.40;99.90
46590;DHT22;32313;48.722;9.362;2022-09-03T05:21:33;14.40;99.90
46590;DHT22;32313;48.722;9.362;2022-09-03T05:24:03;14.40;99.90
46590;DHT22;32313;48.722;9.362;2022-09-03T05:26:31;14.40;99.90
46590;DHT22;32313;48.722;9.362;2022-09-03T05:28:59;14.50;99.90
46590;DHT22;32313;48.722;9.362;2022-09-03T05:31:27;14.50;99.90
46590;DHT22;32313;48.722;9.362;2022-09-03T05:33:56;14.60;99.90
46590;DHT22;32313;48.722;9.362;2022-09-03T05:36:26;14.70;99.90
46590;DHT22;32313;48.722;9.362;2022-09-03T05:38:53;14.80;99.90
46590;DHT22;32313;48.722;9.362;2022-09-03T05:41:19;14.90;99.90
46590;DHT22;32313;48.722;9.362;2022-09-03T05:43:51;15.00;99.90
46590;DHT22;32313;48.722;9.362;2022-09-03T05:46:21;15.10;99.90
46590;DHT22;32313;48.722;9.362;2022-09-03T05:48:50;15.10;99.90
46590;DHT22;32313;48.722;9.362;2022-09-03T05:51:17;15.20;99.90
46590;DHT22;32313;48.722;9.362;2022-09-03T05:53:44;15.30;99.90
46590;DHT22;32313;48.722;9.362;2022-09-03T05:56:18;15.40;99.90
46590;DHT22;32313;48.722;9.362;2022-09-03T05:58:50;15.40;99.90
46590;DHT22;32313;48.722;9.362;2022-09-03T06:01:24;15.50;99.90
46590;DHT22;32313;48.722;9.362;2022-09-03T06:03:58;15.60;99.90
46590;DHT22;32313;48.722;9.362;2022-09-03T06:06:25;15.80;99.90
46590;DHT22;32313;48.722;9.362;2022-09-03T06:08:53;15.90;99.90
46590;DHT22;32313;48.722;9.362;2022-09-03T06:11:20;16.00;99.90
46590;DHT22;32313;48.722;9.362;2022-09-03T06:13:47;16.10;99.90
46590;DHT22;32313;48.722;9.362;2022-09-03T06:16:13;16.20;99.90
46590;DHT22;32313;48.722;9.362;2022-09-03T06:18:39;16.30;99.90
46590;DHT22;32313;48.722;9.362;2022-09-03T06:21:06;16.30;99.90
46590;DHT22;32313;48.722;9.362;2022-09-03T06:23:33;16.40;99.90
46590;DHT22;32313;48.722;9.362;2022-09-03T06:28:25;16.50;99.90
46590;DHT22;32313;48.722;9.362;2022-09-03T06:30:52;16.60;99.90
46590;DHT22;32313;48.722;9.362;2022-09-03T06:33:18;16.70;99.90
46590;DHT22;32313;48.722;9.362;2022-09-03T06:35:44;16.80;99.90
46590;DHT22;32313;48.722;9.362;2022-09-03T06:38:11;16.80;99.90
46590;DHT22;32313;48.722;9.362;2022-09-03T06:40:37;16.90;99.90
46590;DHT22;32313;48.722;9.362;2022-09-03T06:43:03;16.90;99.90
46590;DHT22;32313;48.722;9.362;2022-09-03T06:45:29;17.00;99.90
46590;DHT22;32313;48.722;9.362;2022-09-03T06:47:55;17.10;99.90
46590;DHT22;32313;48.722;9.362;2022-09-03T06:50:21;17.20;99.90
46590;DHT22;32313;48.722;9.362;2022-09-03T06:52:52;17.30;99.90
46590;DHT22;32313;48.722;9.362;2022-09-03T06:55:20;17.50;99.90
46590;DHT22;32313;48.722;9.362;2022-09-03T06:57:46;17.60;99.90
46590;DHT22;32313;48.722;9.362;2022-09-03T07:00:13;17.70;99.90
46590;DHT22;32313;48.722;9.362;2022-09-03T07:02:39;17.90;99.90
46590;DHT22;32313;48.722;9.362;2022-09-03T07:05:07;18.00;99.90
46590;DHT22;32313;48.722;9.362;2022-09-03T07:07:33;18.20;99.90
46590;DHT22;32313;48.722;9.362;2022-09-03T07:09:58;18.20;99.90
46590;DHT22;32313;48.722;9.362;2022-09-03T07:12:25;18.20;99.90
46590;DHT22;32313;48.722;9.362;2022-09-03T07:14:51;18.40;99.90
46590;DHT22;32313;48.722;9.362;2022-09-03T07:17:16;18.40;99.90
46590;DHT22;32313;48.722;9.362;2022-09-03T07:19:42;18.40;99.90
46590;DHT22;32313;48.722;9.362;2022-09-03T07:22:08;18.50;99.90
46590;DHT22;32313;48.722;9.362;2022-09-03T07:24:34;18.50;99.90
46590;DHT22;32313;48.722;9.362;2022-09-03T07:27:02;18.40;99.90
46590;DHT22;32313;48.722;9.362;2022-09-03T07:29:30;18.30;99.90
46590;DHT22;32313;48.722;9.362;2022-09-03T07:31:55;18.30;99.90
46590;DHT22;32313;48.722;9.362;2022-09-03T07:34:21;18.30;99.90
46590;DHT22;32313;48.722;9.362;2022-09-03T07:36:51;18.30;99.90
46590;DHT22;32313;48.722;9.362;2022-09-03T07:39:17;18.40;99.90
46590;DHT22;32313;48.722;9.362;2022-09-03T07:41:44;18.40;99.90
46590;DHT22;32313;48.722;9.362;2022-09-03T07:44:11;18.40;99.90
46590;DHT22;32313;48.722;9.362;2022-09-03T07:46:37;18.60;99.90
46590;DHT22;32313;48.722;9.362;2022-09-03T07:49:04;18.70;99.90
46590;DHT22;32313;48.722;9.362;2022-09-03T07:51:34;18.80;99.90
46590;DHT22;32313;48.722;9.362;2022-09-03T07:54:02;19.00;99.90
46590;DHT22;32313;48.722;9.362;2022-09-03T07:56:29;19.20;99.90
46590;DHT22;32313;48.722;9.362;2022-09-03T07:58:59;19.30;99.90
46590;DHT22;32313;48.722;9.362;2022-09-03T08:01:27;19.40;99.90
46590;DHT22;32313;48.722;9.362;2022-09-03T08:03:53;19.50;99.90
46590;DHT22;32313;48.722;9.362;2022-09-03T08:06:21;19.60;99.90
46590;DHT22;32313;48.722;9.362;2022-09-03T08:08:47;19.80;99.90
46590;DHT22;32313;48.722;9.362;2022-09-03T08:11:16;20.20;99.90
46590;DHT22;32313;48.722;9.362;2022-09-03T08:13:54;20.60;99.90
46590;DHT22;32313;48.722;9.362;2022-09-03T08:16:22;21.00;99.90
46590;DHT22;32313;48.722;9.362;2022-09-03T08:18:47;21.40;99.90
46590;DHT22;32313;48.722;9.362;2022-09-03T08:21:18;21.70;99.90
46590;DHT22;32313;48.722;9.362;2022-09-03T08:23:49;21.80;99.90
46590;DHT22;32313;48.722;9.362;2022-09-03T08:26:16;21.70;99.90
46590;DHT22;32313;48.722;9.362;2022-09-03T08:28:43;21.70;99.90
46590;DHT22;32313;48.722;9.362;2022-09-03T08:33:45;21.90;99.90
46590;DHT22;32313;48.722;9.362;2022-09-03T08:36:12;21.90;99.90
46590;DHT22;32313;48.722;9.362;2022-09-03T08:38:40;22.00;99.90
46590;DHT22;32313;48.722;9.362;2022-09-03T08:46:26;22.20;99.90
46590;DHT22;32313;48.722;9.362;2022-09-03T08:48:57;22.30;99.90
46590;DHT22;32313;48.722;9.362;2022-09-03T08:51:24;22.40;99.90
46590;DHT22;32313;48.722;9.362;2022-09-03T08:53:53;23.00;99.90
46590;DHT22;32313;48.722;9.362;2022-09-03T08:56:29;24.30;99.90
46590;DHT22;32313;48.722;9.362;2022-09-03T08:58:56;25.30;99.90
46590;DHT22;32313;48.722;9.362;2022-09-03T09:01:29;26.30;99.90
46590;DHT22;32313;48.722;9.362;2022-09-03T09:06:55;28.70;99.90
46590;DHT22;32313;48.722;9.362;2022-09-03T09:09:45;28.90;99.60
46590;DHT22;32313;48.722;9.362;2022-09-03T09:18:26;28.60;99.60
46590;DHT22;32313;48.722;9.362;2022-09-03T09:23:14;26.90;98.60
46590;DHT22;32313;48.722;9.362;2022-09-03T09:25:47;26.00;99.90
46590;DHT22;32313;48.722;9.362;2022-09-03T09:28:20;25.40;99.90
46590;DHT22;32313;48.722;9.362;2022-09-03T09:30:47;25.00;99.90
46590;DHT22;32313;48.722;9.362;2022-09-03T09:33:15;25.00;99.90
46590;DHT22;32313;48.722;9.362;2022-09-03T09:35:42;24.80;99.90
46590;DHT22;32313;48.722;9.362;2022-09-03T09:38:09;24.80;99.90
46590;DHT22;32313;48.722;9.362;2022-09-03T09:40:37;24.90;99.90
46590;DHT22;32313;48.722;9.362;2022-09-03T09:43:11;25.00;99.90
46590;DHT22;32313;48.722;9.362;2022-09-03T09:45:43;24.60;99.90
46590;DHT22;32313;48.722;9.362;2022-09-03T09:48:30;24.10;99.90
46590;DHT22;32313;48.722;9.362;2022-09-03T09:51:10;23.90;99.90
46590;DHT22;32313;48.722;9.362;2022-09-03T09:53:36;23.50;99.90
46590;DHT22;32313;48.722;9.362;2022-09-03T09:56:04;23.50;99.90
46590;DHT22;32313;48.722;9.362;2022-09-03T09:58:31;23.90;99.90
46590;DHT22;32313;48.722;9.362;2022-09-03T10:03:33;26.30;99.90
46590;DHT22;32313;48.722;9.362;2022-09-03T10:06:07;26.80;99.90
46590;DHT22;32313;48.722;9.362;2022-09-03T10:09:03;27.20;99.90
46590;DHT22;32313;48.722;9.362;2022-09-03T10:11:29;28.10;99.90
46590;DHT22;32313;48.722;9.362;2022-09-03T10:13:56;28.80;98.30
46590;DHT22;32313;48.722;9.362;2022-09-03T10:16:26;29.40;94.70
46590;DHT22;32313;48.722;9.362;2022-09-03T10:21:44;28.30;93.70
46590;DHT22;32313;48.722;9.362;2022-09-03T10:26:40;28.00;94.70
46590;DHT22;32313;48.722;9.362;2022-09-03T10:29:06;28.00;94.80
46590;DHT22;32313;48.722;9.362;2022-09-03T10:34:54;28.50;94.00
46590;DHT22;32313;48.722;9.362;2022-09-03T10:37:56;27.30;93.60
46590;DHT22;32313;48.722;9.362;2022-09-03T10:40:48;26.50;95.90
46590;DHT22;32313;48.722;9.362;2022-09-03T10:46:21;26.00;96.20
46590;DHT22;32313;48.722;9.362;2022-09-03T10:51:41;25.40;97.80
46590;DHT22;32313;48.722;9.362;2022-09-03T10:56:56;24.80;98.80
46590;DHT22;32313;48.722;9.362;2022-09-03T11:08:20;24.40;99.90
46590;DHT22;32313;48.722;9.362;2022-09-03T11:10:52;24.60;99.90
46590;DHT22;32313;48.722;9.362;2022-09-03T11:14:17;24.80;99.90
46590;DHT22;32313;48.722;9.362;2022-09-03T11:17:04;24.80;99.90
46590;DHT22;32313;48.722;9.362;2022-09-03T11:19:36;24.70;99.90
46590;DHT22;32313;48.722;9.362;2022-09-03T11:22:06;24.50;99.90
46590;DHT22;32313;48.722;9.362;2022-09-03T11:24:34;24.60;99.90
46590;DHT22;32313;48.722;9.362;2022-09-03T11:27:32;24.70;99.90
46590;DHT22;32313;48.722;9.362;2022-09-03T11:33:09;24.10;99.90
46590;DHT22;32313;48.722;9.362;2022-09-03T11:35:37;23.90;99.90
46590;DHT22;32313;48.722;9.362;2022-09-03T11:38:22;23.70;99.90
46590;DHT22;32313;48.722;9.362;2022-09-03T11:41:34;23.50;99.90
46590;DHT22;32313;48.722;9.362;2022-09-03T11:44:20;23.10;99.90
46590;DHT22;32313;48.722;9.362;2022-09-03T11:46:56;22.90;99.90
46590;DHT22;32313;48.722;9.362;2022-09-03T11:49:30;22.70;99.90
46590;DHT22;32313;48.722;9.362;2022-09-03T11:52:02;22.60;99.90
46590;DHT22;32313;48.722;9.362;2022-09-03T11:54:42;22.50;99.90
46590;DHT22;32313;48.722;9.362;2022-09-03T11:59:36;22.30;99.90
46590;DHT22;32313;48.722;9.362;2022-09-03T12:02:23;22.20;99.90
46590;DHT22;32313;48.722;9.362;2022-09-03T12:05:15;22.10;99.90
46590;DHT22;32313;48.722;9.362;2022-09-03T12:17:06;21.20;99.90
46590;DHT22;32313;48.722;9.362;2022-09-03T12:21:48;19.50;99.90
46590;DHT22;32313;48.722;9.362;2022-09-03T12:24:14;19.10;99.90
46590;DHT22;32313;48.722;9.362;2022-09-03T12:26:41;18.70;99.90
46590;DHT22;32313;48.722;9.362;2022-09-03T12:29:21;18.30;99.90
46590;DHT22;32313;48.722;9.362;2022-09-03T12:31:48;17.70;99.90
46590;DHT22;32313;48.722;9.362;2022-09-03T12:34:17;17.00;99.90
46590;DHT22;32313;48.722;9.362;2022-09-03T12:36:47;16.50;99.90
46590;DHT22;32313;48.722;9.362;2022-09-03T12:39:31;16.20;99.90
46590;DHT22;32313;48.722;9.362;2022-09-03T12:42:03;16.00;99.90
46590;DHT22;32313;48.722;9.362;2022-09-03T12:44:40;15.90;99.90
46590;DHT22;32313;48.722;9.362;2022-09-03T12:47:14;15.80;99.90
46590;DHT22;32313;48.722;9.362;2022-09-03T12:49:48;15.70;99.90
46590;DHT22;32313;48.722;9.362;2022-09-03T12:52:25;15.70;99.90
46590;DHT22;32313;48.722;9.362;2022-09-03T12:55:00;15.70;99.90
46590;DHT22;32313;48.722;9.362;2022-09-03T12:57:42;15.70;99.90
46590;DHT22;32313;48.722;9.362;2022-09-03T13:00:12;15.70;99.90
46590;DHT22;32313;48.722;9.362;2022-09-03T13:05:20;15.70;99.90
46590;DHT22;32313;48.722;9.362;2022-09-03T13:07:53;15.70;99.90
46590;DHT22;32313;48.722;9.362;2022-09-03T13:10:27;15.50;99.90
46590;DHT22;32313;48.722;9.362;2022-09-03T13:12:58;15.40;99.90
46590;DHT22;32313;48.722;9.362;2022-09-03T13:15:25;15.30;99.90
46590;DHT22;32313;48.722;9.362;2022-09-03T13:23:27;15.30;99.90
46590;DHT22;32313;48.722;9.362;2022-09-03T13:31:51;15.60;99.90
46590;DHT22;32313;48.722;9.362;2022-09-03T13:34:23;15.70;99.90
46590;DHT22;32313;48.722;9.362;2022-09-03T13:39:34;15.90;99.90
46590;DHT22;32313;48.722;9.362;2022-09-03T13:42:09;16.10;99.90
46590;DHT22;32313;48.722;9.362;2022-09-03T13:44:45;16.30;99.90
46590;DHT22;32313;48.722;9.362;2022-09-03T13:50:05;16.80;99.90
46590;DHT22;32313;48.722;9.362;2022-09-03T13:53:16;17.20;99.90
46590;DHT22;32313;48.722;9.362;2022-09-03T13:55:48;17.60;99.90
46590;DHT22;32313;48.722;9.362;2022-09-03T14:03:48;18.80;99.90
46590;DHT22;32313;48.722;9.362;2022-09-03T14:17:15;22.40;99.90
46590;DHT22;32313;48.722;9.362;2022-09-03T14:27:41;23.80;99.90
46590;DHT22;32313;48.722;9.362;2022-09-03T14:55:56;26.00;99.90
46590;DHT22;32313;48.722;9.362;2022-09-03T15:01:30;24.20;99.90
46590;DHT22;32313;48.722;9.362;2022-09-03T15:04:09;23.30;99.90
46590;DHT22;32313;48.722;9.362;2022-09-03T15:09:34;23.00;99.90
46590;DHT22;32313;48.722;9.362;2022-09-03T15:15:21;25.10;99.90
46590;DHT22;32313;48.722;9.362;2022-09-03T15:32:05;28.20;99.90
46590;DHT22;32313;48.722;9.362;2022-09-03T15:40:35;27.90;99.90
46590;DHT22;32313;48.722;9.362;2022-09-03T15:43:28;28.30;99.90
46590;DHT22;32313;48.722;9.362;2022-09-03T15:46:01;28.00;99.90
46590;DHT22;32313;48.722;9.362;2022-09-03T15:48:45;27.60;99.90
46590;DHT22;32313;48.722;9.362;2022-09-03T15:51:26;27.40;99.90
46590;DHT22;32313;48.722;9.362;2022-09-03T15:54:13;27.60;99.90
46590;DHT22;32313;48.722;9.362;2022-09-03T15:57:02;27.60;99.90
46590;DHT22;32313;48.722;9.362;2022-09-03T16:05:37;25.90;99.90
46590;DHT22;32313;48.722;9.362;2022-09-03T16:08:41;25.20;99.90
46590;DHT22;32313;48.722;9.362;2022-09-03T16:11:23;24.70;99.90
46590;DHT22;32313;48.722;9.362;2022-09-03T16:14:09;24.00;99.90
46590;DHT22;32313;48.722;9.362;2022-09-03T16:17:27;23.30;99.90
46590;DHT22;32313;48.722;9.362;2022-09-03T16:19:55;23.20;99.90
46590;DHT22;32313;48.722;9.362;2022-09-03T16:22:33;23.40;99.90
46590;DHT22;32313;48.722;9.362;2022-09-03T16:25:19;23.40;99.90
46590;DHT22;32313;48.722;9.362;2022-09-03T16:28:30;23.60;99.90
46590;DHT22;32313;48.722;9.362;2022-09-03T16:34:09;23.10;99.90
46590;DHT22;32313;48.722;9.362;2022-09-03T16:39:39;22.00;99.90
46590;DHT22;32313;48.722;9.362;2022-09-03T17:13:39;19.80;99.90
46590;DHT22;32313;48.722;9.362;2022-09-03T17:21:57;19.80;99.90
46590;DHT22;32313;48.722;9.362;2022-09-03T17:24:34;19.70;99.90
46590;DHT22;32313;48.722;9.362;2022-09-03T17:35:46;19.70;99.90
46590;DHT22;32313;48.722;9.362;2022-09-03T17:44:05;19.10;99.90
46590;DHT22;32313;48.722;9.362;2022-09-03T17:46:50;18.90;99.90
46590;DHT22;32313;48.722;9.362;2022-09-03T17:49:32;18.70;99.90
46590;DHT22;32313;48.722;9.362;2022-09-03T17:52:04;18.50;99.90
46590;DHT22;32313;48.722;9.362;2022-09-03T17:54:44;18.40;99.90
46590;DHT22;32313;48.722;9.362;2022-09-03T17:57:18;18.30;99.90
46590;DHT22;32313;48.722;9.362;2022-09-03T18:05:23;17.90;99.90
46590;DHT22;32313;48.722;9.362;2022-09-03T18:07:55;17.70;99.90
46590;DHT22;32313;48.722;9.362;2022-09-03T18:10:59;17.60;99.90
46590;DHT22;32313;48.722;9.362;2022-09-03T18:13:50;17.50;99.90
46590;DHT22;32313;48.722;9.362;2022-09-03T18:16:31;17.40;99.90
46590;DHT22;32313;48.722;9.362;2022-09-03T18:19:38;17.20;99.90
46590;DHT22;32313;48.722;9.362;2022-09-03T18:22:29;17.20;99.90
46590;DHT22;32313;48.722;9.362;2022-09-03T18:25:16;17.10;99.90
46590;DHT22;32313;48.722;9.362;2022-09-03T18:28:04;17.10;99.90
46590;DHT22;32313;48.722;9.362;2022-09-03T18:30:49;17.00;99.90
46590;DHT22;32313;48.722;9.362;2022-09-03T18:33:33;16.90;99.90
46590;DHT22;32313;48.722;9.362;2022-09-03T18:36:17;16.80;99.90
46590;DHT22;32313;48.722;9.362;2022-09-03T18:39:13;16.70;99.90
46590;DHT22;32313;48.722;9.362;2022-09-03T18:42:06;16.60;99.90
46590;DHT22;32313;48.722;9.362;2022-09-03T18:48:35;16.30;99.90
46590;DHT22;32313;48.722;9.362;2022-09-03T18:52:00;16.20;99.90
46590;DHT22;32313;48.722;9.362;2022-09-03T19:01:10;16.00;99.90
46590;DHT22;32313;48.722;9.362;2022-09-03T19:04:06;15.90;99.90
46590;DHT22;32313;48.722;9.362;2022-09-03T19:07:08;15.80;99.90
46590;DHT22;32313;48.722;9.362;2022-09-03T19:10:02;15.80;99.90
46590;DHT22;32313;48.722;9.362;2022-09-03T19:16:10;15.60;99.90
46590;DHT22;32313;48.722;9.362;2022-09-03T19:19:10;15.50;99.90
46590;DHT22;32313;48.722;9.362;2022-09-03T19:22:10;15.50;99.90
46590;DHT22;32313;48.722;9.362;2022-09-03T19:25:05;15.50;99.90
46590;DHT22;32313;48.722;9.362;2022-09-03T19:31:13;15.50;99.90
46590;DHT22;32313;48.722;9.362;2022-09-03T19:37:00;15.50;99.90
46590;DHT22;32313;48.722;9.362;2022-09-03T19:45:49;15.40;99.90
46590;DHT22;32313;48.722;9.362;2022-09-03T19:48:55;15.40;99.90
46590;DHT22;32313;48.722;9.362;2022-09-03T19:52:09;15.30;99.90
46590;DHT22;32313;48.722;9.362;2022-09-03T19:54:57;15.30;99.90
46590;DHT22;32313;48.722;9.362;2022-09-03T19:57:44;15.20;99.90
46590;DHT22;32313;48.722;9.362;2022-09-03T20:00:30;15.10;99.90
46590;DHT22;32313;48.722;9.362;2022-09-03T20:03:15;14.90;99.90
46590;DHT22;32313;48.722;9.362;2022-09-03T20:06:04;14.90;99.90
46590;DHT22;32313;48.722;9.362;2022-09-03T20:08:50;14.90;99.90
46590;DHT22;32313;48.722;9.362;2022-09-03T20:11:36;14.90;99.90
46590;DHT22;32313;48.722;9.362;2022-09-03T20:14:10;14.80;99.90
46590;DHT22;32313;48.722;9.362;2022-09-03T20:21:58;14.80;99.90
46590;DHT22;32313;48.722;9.362;2022-09-03T20:27:35;14.80;99.90
46590;DHT22;32313;48.722;9.362;2022-09-03T20:30:14;14.80;99.90
46590;DHT22;32313;48.722;9.362;2022-09-03T20:35:45;14.70;99.90
46590;DHT22;32313;48.722;9.362;2022-09-03T20:47:42;14.50;99.90
46590;DHT22;32313;48.722;9.362;2022-09-03T20:55:45;14.60;99.90
46590;DHT22;32313;48.722;9.362;2022-09-03T21:01:09;14.60;99.90
46590;DHT22;32313;48.722;9.362;2022-09-03T21:04:03;14.70;99.90
46590;DHT22;32313;48.722;9.362;2022-09-03T21:06:48;14.70;99.90
46590;DHT22;32313;48.722;9.362;2022-09-03T21:17:44;14.80;99.90
46590;DHT22;32313;48.722;9.362;2022-09-03T21:20:27;14.80;99.90
46590;DHT22;32313;48.722;9.362;2022-09-03T21:23:27;14.80;99.90
46590;DHT22;32313;48.722;9.362;2022-09-03T21:31:22;14.60;99.90
46590;DHT22;32313;48.722;9.362;2022-09-03T21:33:52;14.60;99.90
46590;DHT22;32313;48.722;9.362;2022-09-03T21:36:30;14.70;99.90
46590;DHT22;32313;48.722;9.362;2022-09-03T21:39:21;14.70;99.90
46590;DHT22;32313;48.722;9.362;2022-09-03T21:44:52;14.80;99.90
46590;DHT22;32313;48.722;9.362;2022-09-03T21:47:19;14.80;99.90
46590;DHT22;32313;48.722;9.362;2022-09-03T21:52:54;14.90;99.90
46590;DHT22;32313;48.722;9.362;2022-09-03T21:55:31;14.90;99.90
46590;DHT22;32313;48.722;9.362;2022-09-03T21:58:19;15.00;99.90
46590;DHT22;32313;48.722;9.362;2022-09-03T22:00:59;15.10;99.90
46590;DHT22;32313;48.722;9.362;2022-09-03T22:03:28;15.10;99.90
46590;DHT22;32313;48.722;9.362;2022-09-03T22:06:07;15.20;99.90
46590;DHT22;32313;48.722;9.362;2022-09-03T22:08:43;15.20;99.90
46590;DHT22;32313;48.722;9.362;2022-09-03T22:11:27;15.20;99.90